createdAt,value
2022-08-04T00:00:31.019Z,0
2022-08-04T00:01:02.222Z,0
2022-08-04T00:01:34.799Z,0
2022-08-04T00:02:05.965Z,0
2022-08-04T00:02:40.433Z,0
2022-08-04T00:03:10.028Z,0
2022-08-04T00:03:42.423Z,0
2022-08-04T00:04:13.808Z,0
2022-08-04T00:04:46.430Z,0
2022-08-04T00:05:17.981Z,0
2022-08-04T00:05:50.294Z,0
2022-08-04T00:06:21.709Z,0
2022-08-04T00:06:54.364Z,0
2022-08-04T00:07:44.775Z,0
2022-08-04T00:07:58.099Z,0
2022-08-04T00:08:29.659Z,0
2022-08-04T00:09:02.141Z,0
2022-08-04T00:09:33.731Z,0
2022-08-04T00:10:06.254Z,0
2022-08-04T00:10:37.539Z,0
2022-08-04T00:11:15.276Z,0
2022-08-04T00:11:42.419Z,0
2022-08-04T00:12:15.011Z,0
2022-08-04T00:12:46.045Z,0
2022-08-04T00:13:17.993Z,0
2022-08-04T00:13:54.280Z,0
2022-08-04T00:14:23.067Z,0
2022-08-04T00:14:53.481Z,0
2022-08-04T00:15:27.357Z,0
2022-08-04T00:15:57.853Z,0
2022-08-04T00:16:32.766Z,0
2022-08-04T00:17:01.438Z,0
2022-08-04T00:17:33.678Z,0
2022-08-04T00:18:05.160Z,0
2022-08-04T00:18:38.048Z,0
2022-08-04T00:19:09.261Z,0
2022-08-04T00:19:41.823Z,0
2022-08-04T00:20:13.479Z,0
2022-08-04T00:20:46.871Z,0
2022-08-04T00:21:17.110Z,0
2022-08-04T00:21:49.586Z,0
2022-08-04T00:22:21.039Z,0
2022-08-04T00:22:53.683Z,0
2022-08-04T00:23:24.950Z,0
2022-08-04T00:24:12.246Z,0
2022-08-04T00:24:29.049Z,0
2022-08-04T00:25:01.953Z,0
2022-08-04T00:25:32.933Z,0
2022-08-04T00:26:06.320Z,0
2022-08-04T00:26:37.026Z,0
2022-08-04T00:27:11.339Z,0
2022-08-04T00:27:40.920Z,0
2022-08-04T00:28:13.340Z,0
2022-08-04T00:28:44.862Z,0
2022-08-04T00:29:17.320Z,0
2022-08-04T00:29:48.867Z,0
2022-08-04T00:30:21.672Z,0
2022-08-04T00:30:53.539Z,0
2022-08-04T00:31:53.678Z,0
2022-08-04T00:32:12.666Z,0
2022-08-04T00:32:44.623Z,0
2022-08-04T00:33:16.631Z,0
2022-08-04T00:33:48.546Z,0
2022-08-04T00:34:20.693Z,0
2022-08-04T00:34:52.631Z,0
2022-08-04T00:35:24.644Z,0
2022-08-04T00:35:57.401Z,0
2022-08-04T00:36:29.505Z,0
2022-08-04T00:37:00.616Z,0
2022-08-04T00:37:33.706Z,0
2022-08-04T00:38:04.542Z,0
2022-08-04T00:38:36.492Z,0
2022-08-04T00:39:08.274Z,0
2022-08-04T00:39:40.394Z,0
2022-08-04T00:40:13.594Z,0
2022-08-04T00:40:44.594Z,0
2022-08-04T00:41:16.229Z,0
2022-08-04T00:41:56.728Z,0
2022-08-04T00:42:20.278Z,0
2022-08-04T00:42:58.980Z,0
2022-08-04T00:43:24.265Z,0
2022-08-04T00:43:56.192Z,0
2022-08-04T00:44:28.220Z,0
2022-08-04T00:44:59.967Z,0
2022-08-04T00:46:00.470Z,0
2022-08-04T00:46:20.499Z,0
2022-08-04T00:46:52.050Z,0
2022-08-04T00:47:24.677Z,0
2022-08-04T00:47:56.109Z,0
2022-08-04T00:48:28.775Z,0
2022-08-04T00:48:59.980Z,0
2022-08-04T00:49:32.246Z,0
2022-08-04T00:50:04.000Z,0
2022-08-04T00:50:37.368Z,0
2022-08-04T00:51:08.044Z,0
2022-08-04T00:51:40.281Z,0
2022-08-04T00:52:30.981Z,0
2022-08-04T00:52:44.472Z,0
2022-08-04T00:53:16.842Z,0
2022-08-04T00:53:49.941Z,0
2022-08-04T00:54:19.769Z,0
2022-08-04T00:54:52.416Z,0
2022-08-04T00:55:23.729Z,0
2022-08-04T00:55:56.391Z,0
2022-08-04T00:56:27.795Z,0
2022-08-04T00:57:00.152Z,0
2022-08-04T00:57:34.603Z,0
2022-08-04T00:58:04.057Z,0
2022-08-04T00:58:35.707Z,0
2022-08-04T00:59:07.883Z,0
2022-08-04T00:59:39.403Z,0
2022-08-04T01:00:12.530Z,0
2022-08-04T01:00:43.733Z,0
2022-08-04T01:01:16.045Z,0
2022-08-04T01:01:47.777Z,0
2022-08-04T01:02:21.152Z,0
2022-08-04T01:02:52.273Z,0
2022-08-04T01:03:23.841Z,0
2022-08-04T01:03:55.405Z,0
2022-08-04T01:04:29.081Z,0
2022-08-04T01:04:59.212Z,0
2022-08-04T01:05:37.912Z,0
2022-08-04T01:06:03.260Z,0
2022-08-04T01:06:35.818Z,0
2022-08-04T01:07:07.155Z,0
2022-08-04T01:07:39.723Z,0
2022-08-04T01:08:11.201Z,0
2022-08-04T01:08:43.514Z,0
2022-08-04T01:09:21.128Z,0
2022-08-04T01:09:48.031Z,0
2022-08-04T01:10:19.151Z,0
2022-08-04T01:10:51.493Z,0
2022-08-04T01:11:23.147Z,0
2022-08-04T01:11:57.941Z,0
2022-08-04T01:12:26.893Z,0
2022-08-04T01:12:59.466Z,0
2022-08-04T01:13:30.938Z,0
2022-08-04T01:14:03.592Z,0
2022-08-04T01:14:36.906Z,0
2022-08-04T01:15:09.000Z,0
2022-08-04T01:15:59.297Z,0
2022-08-04T01:16:11.159Z,0
2022-08-04T01:16:42.797Z,0
2022-08-04T01:17:16.704Z,0
2022-08-04T01:17:46.862Z,0
2022-08-04T01:18:23.341Z,0
2022-08-04T01:18:50.678Z,0
2022-08-04T01:19:23.429Z,0
2022-08-04T01:19:54.732Z,0
2022-08-04T01:20:27.215Z,0
2022-08-04T01:21:00.755Z,0
2022-08-04T01:21:31.165Z,0
2022-08-04T01:22:02.534Z,0
2022-08-04T01:22:35.271Z,0
2022-08-04T01:23:07.575Z,0
2022-08-04T01:23:39.117Z,0
2022-08-04T01:24:10.500Z,0
2022-08-04T01:24:43.342Z,0
2022-08-04T01:25:14.655Z,0
2022-08-04T01:25:47.142Z,0
2022-08-04T01:26:43.383Z,0
2022-08-04T01:27:06.281Z,0
2022-08-04T01:27:38.371Z,0
2022-08-04T01:28:11.336Z,0
2022-08-04T01:28:42.746Z,0
2022-08-04T01:29:15.816Z,0
2022-08-04T01:29:48.817Z,0
2022-08-04T01:30:18.468Z,0
2022-08-04T01:30:50.160Z,0
2022-08-04T01:31:22.214Z,0
2022-08-04T01:31:54.616Z,0
2022-08-04T01:32:26.517Z,0
2022-08-04T01:32:59.079Z,0
2022-08-04T01:33:31.018Z,0
2022-08-04T01:34:18.807Z,0
2022-08-04T01:34:50.136Z,0
2022-08-04T01:35:46.657Z,0
2022-08-04T01:35:54.065Z,0
2022-08-04T01:36:26.606Z,0
2022-08-04T01:36:57.940Z,0
2022-08-04T01:37:30.387Z,0
2022-08-04T01:38:02.015Z,0
2022-08-04T01:38:34.223Z,0
2022-08-04T01:39:06.183Z,0
2022-08-04T01:39:38.548Z,0
2022-08-04T01:40:10.665Z,0
2022-08-04T01:40:42.262Z,0
2022-08-04T01:41:14.750Z,0
2022-08-04T01:41:57.808Z,0
2022-08-04T01:42:18.769Z,0
2022-08-04T01:42:50.279Z,0
2022-08-04T01:43:21.729Z,0
2022-08-04T01:43:54.241Z,0
2022-08-04T01:44:25.788Z,0
2022-08-04T01:44:58.263Z,0
2022-08-04T01:45:29.983Z,0
2022-08-04T01:46:02.276Z,0
2022-08-04T01:46:35.378Z,0
2022-08-04T01:47:08.207Z,0
2022-08-04T01:47:37.535Z,0
2022-08-04T01:48:09.930Z,0
2022-08-04T01:48:41.412Z,0
2022-08-04T01:49:14.051Z,0
2022-08-04T01:49:45.450Z,0
2022-08-04T01:50:18.025Z,0
2022-08-04T01:50:53.170Z,0
2022-08-04T01:51:22.003Z,0
2022-08-04T01:51:53.165Z,0
2022-08-04T01:52:25.925Z,0
2022-08-04T01:52:58.208Z,0
2022-08-04T01:53:32.116Z,0
2022-08-04T01:54:01.128Z,0
2022-08-04T01:54:33.797Z,0
2022-08-04T01:55:05.355Z,0
2022-08-04T01:55:54.236Z,0
2022-08-04T01:56:10.207Z,0
2022-08-04T01:56:41.768Z,0
2022-08-04T01:57:37.831Z,0
2022-08-04T01:57:45.487Z,0
2022-08-04T01:58:17.106Z,0
2022-08-04T01:58:49.764Z,0
2022-08-04T01:59:21.104Z,0
2022-08-04T01:59:53.817Z,0
2022-08-04T02:00:26.389Z,0
2022-08-04T02:00:58.778Z,0
2022-08-04T02:01:28.877Z,0
2022-08-04T02:02:01.434Z,0
2022-08-04T02:02:32.975Z,0
2022-08-04T02:03:06.826Z,0
2022-08-04T02:04:18.438Z,0
2022-08-04T02:04:40.883Z,0
2022-08-04T02:05:13.794Z,0
2022-08-04T02:06:03.058Z,0
2022-08-04T02:06:17.833Z,0
2022-08-04T02:06:49.832Z,0
2022-08-04T02:07:21.758Z,0
2022-08-04T02:07:52.637Z,0
2022-08-04T02:08:25.688Z,0
2022-08-04T02:08:57.197Z,0
2022-08-04T02:09:29.525Z,0
2022-08-04T02:10:01.769Z,0
2022-08-04T02:10:34.498Z,0
2022-08-04T02:11:04.471Z,0
2022-08-04T02:11:37.361Z,0
2022-08-04T02:12:16.257Z,0
2022-08-04T02:12:42.241Z,0
2022-08-04T02:13:12.412Z,0
2022-08-04T02:13:45.350Z,0
2022-08-04T02:14:16.441Z,0
2022-08-04T02:14:50.222Z,0
2022-08-04T02:15:20.683Z,0
2022-08-04T02:15:53.537Z,0
2022-08-04T02:16:24.414Z,0
2022-08-04T02:16:57.127Z,0
2022-08-04T02:17:28.277Z,0
2022-08-04T02:18:01.222Z,0
2022-08-04T02:18:32.238Z,0
2022-08-04T02:19:05.163Z,0
2022-08-04T02:19:36.139Z,0
2022-08-04T02:20:09.348Z,0
2022-08-04T02:20:40.407Z,0
2022-08-04T02:21:13.436Z,0
2022-08-04T02:21:44.162Z,0
2022-08-04T02:22:16.955Z,0
2022-08-04T02:22:48.034Z,0
2022-08-04T02:23:20.959Z,0
2022-08-04T02:23:52.093Z,0
2022-08-04T02:24:24.789Z,0
2022-08-04T02:24:56.016Z,0
2022-08-04T02:25:29.006Z,0
2022-08-04T02:26:00.241Z,0
2022-08-04T02:26:32.918Z,0
2022-08-04T02:27:03.925Z,0
2022-08-04T02:27:59.344Z,0
2022-08-04T02:28:07.729Z,0
2022-08-04T02:28:40.646Z,0
2022-08-04T02:29:12.751Z,0
2022-08-04T02:29:44.940Z,0
2022-08-04T02:30:17.709Z,0
2022-08-04T02:30:48.711Z,0
2022-08-04T02:31:19.711Z,0
2022-08-04T02:31:53.239Z,0
2022-08-04T02:32:23.643Z,0
2022-08-04T02:32:56.544Z,0
2022-08-04T02:33:29.692Z,0
2022-08-04T02:34:00.451Z,0
2022-08-04T02:34:31.540Z,0
2022-08-04T02:35:04.926Z,0
2022-08-04T02:35:36.417Z,0
2022-08-04T02:36:08.577Z,0
2022-08-04T02:36:40.535Z,0
2022-08-04T02:37:12.446Z,0
2022-08-04T02:37:44.373Z,0
2022-08-04T02:38:16.338Z,0
2022-08-04T02:38:48.437Z,0
2022-08-04T02:39:20.528Z,0
2022-08-04T02:39:51.292Z,0
2022-08-04T02:40:25.292Z,0
2022-08-04T02:40:56.437Z,0
2022-08-04T02:41:29.187Z,0
2022-08-04T02:41:59.191Z,0
2022-08-04T02:42:32.245Z,0
2022-08-04T02:43:03.303Z,0
2022-08-04T02:43:52.072Z,0
2022-08-04T02:44:07.142Z,0
2022-08-04T02:44:40.516Z,0
2022-08-04T02:45:12.354Z,0
2022-08-04T02:45:43.918Z,0
2022-08-04T02:46:18.022Z,0
2022-08-04T02:46:48.068Z,0
2022-08-04T02:47:20.471Z,0
2022-08-04T02:48:28.640Z,0
2022-08-04T02:48:38.903Z,0
2022-08-04T02:49:10.994Z,0
2022-08-04T02:49:43.029Z,0
2022-08-04T02:50:14.985Z,0
2022-08-04T02:50:46.928Z,0
2022-08-04T02:51:18.946Z,0
2022-08-04T02:51:51.039Z,0
2022-08-04T02:52:22.782Z,0
2022-08-04T02:52:54.834Z,0
2022-08-04T02:53:26.661Z,0
2022-08-04T02:53:58.712Z,0
2022-08-04T02:54:33.669Z,0
2022-08-04T02:55:03.258Z,0
2022-08-04T02:55:35.377Z,0
2022-08-04T02:56:06.611Z,0
2022-08-04T02:56:39.049Z,0
2022-08-04T02:57:10.590Z,0
2022-08-04T02:57:42.612Z,0
2022-08-04T02:58:15.531Z,0
2022-08-04T02:58:48.956Z,0
2022-08-04T02:59:18.446Z,0
2022-08-04T02:59:51.619Z,0
2022-08-04T03:00:22.888Z,0
2022-08-04T03:00:54.670Z,0
2022-08-04T03:01:26.700Z,0
2022-08-04T03:01:58.533Z,0
2022-08-04T03:02:30.443Z,0
2022-08-04T03:03:03.427Z,0
2022-08-04T03:03:35.293Z,0
2022-08-04T03:04:06.344Z,0
2022-08-04T03:04:38.345Z,0
2022-08-04T03:05:10.369Z,0
2022-08-04T03:05:57.510Z,0
2022-08-04T03:06:14.261Z,0
2022-08-04T03:06:46.078Z,0
2022-08-04T03:07:19.199Z,0
2022-08-04T03:07:50.137Z,0
2022-08-04T03:08:23.209Z,0
2022-08-04T03:08:54.076Z,0
2022-08-04T03:09:26.176Z,0
2022-08-04T03:09:58.118Z,0
2022-08-04T03:10:30.071Z,0
2022-08-04T03:11:01.966Z,0
2022-08-04T03:11:34.929Z,0
2022-08-04T03:12:06.058Z,0
2022-08-04T03:12:39.710Z,0
2022-08-04T03:13:09.947Z,0
2022-08-04T03:13:42.100Z,0
2022-08-04T03:14:13.998Z,0
2022-08-04T03:14:46.169Z,0
2022-08-04T03:15:18.202Z,0
2022-08-04T03:15:49.905Z,0
2022-08-04T03:16:21.753Z,0
2022-08-04T03:16:53.772Z,0
2022-08-04T03:17:26.100Z,0
2022-08-04T03:17:57.813Z,0
2022-08-04T03:18:29.575Z,0
2022-08-04T03:19:01.724Z,0
2022-08-04T03:19:33.707Z,0
2022-08-04T03:20:05.735Z,0
2022-08-04T03:20:37.612Z,0
2022-08-04T03:21:09.687Z,0
2022-08-04T03:21:41.627Z,0
2022-08-04T03:22:13.486Z,0
2022-08-04T03:23:11.574Z,0
2022-08-04T03:23:18.477Z,0
2022-08-04T03:23:50.412Z,0
2022-08-04T03:24:21.404Z,0
2022-08-04T03:24:54.464Z,0
2022-08-04T03:25:25.689Z,0
2022-08-04T03:25:57.761Z,0
2022-08-04T03:26:29.349Z,0
2022-08-04T03:27:01.400Z,0
2022-08-04T03:27:35.394Z,0
2022-08-04T03:28:05.281Z,0
2022-08-04T03:28:37.284Z,0
2022-08-04T03:29:09.327Z,0
2022-08-04T03:29:41.181Z,0
2022-08-04T03:30:13.643Z,0
2022-08-04T03:30:45.271Z,0
2022-08-04T03:31:17.143Z,0
2022-08-04T03:31:49.148Z,0
2022-08-04T03:32:21.278Z,0
2022-08-04T03:32:53.292Z,0
2022-08-04T03:33:31.925Z,0
2022-08-04T03:33:57.259Z,0
2022-08-04T03:34:29.139Z,0
2022-08-04T03:35:02.352Z,0
2022-08-04T03:35:33.135Z,0
2022-08-04T03:36:05.983Z,0
2022-08-04T03:36:37.141Z,0
2022-08-04T03:37:09.847Z,0
2022-08-04T03:37:41.900Z,0
2022-08-04T03:38:13.971Z,0
2022-08-04T03:38:55.614Z,0
2022-08-04T03:39:17.932Z,0
2022-08-04T03:39:49.035Z,0
2022-08-04T03:40:22.085Z,0
2022-08-04T03:40:52.803Z,0
2022-08-04T03:41:51.867Z,0
2022-08-04T03:42:15.879Z,0
2022-08-04T03:42:44.776Z,0
2022-08-04T03:43:57.722Z,0
2022-08-04T03:44:04.790Z,0
2022-08-04T03:44:37.948Z,0
2022-08-04T03:45:20.590Z,0
2022-08-04T03:45:41.860Z,0
2022-08-04T03:46:12.720Z,0
2022-08-04T03:46:46.424Z,0
2022-08-04T03:47:17.071Z,0
2022-08-04T03:47:49.530Z,0
2022-08-04T03:48:21.830Z,0
2022-08-04T03:48:53.499Z,0
2022-08-04T03:49:24.485Z,0
2022-08-04T03:49:57.758Z,0
2022-08-04T03:50:28.621Z,0
2022-08-04T03:51:02.534Z,0
2022-08-04T03:51:35.827Z,0
2022-08-04T03:52:05.437Z,0
2022-08-04T03:52:36.307Z,0
2022-08-04T03:53:09.418Z,0
2022-08-04T03:53:40.391Z,0
2022-08-04T03:54:14.218Z,0
2022-08-04T03:54:44.277Z,0
2022-08-04T03:55:17.501Z,0
2022-08-04T03:55:48.421Z,0
2022-08-04T03:56:21.199Z,0
2022-08-04T03:56:52.210Z,0
2022-08-04T03:57:25.096Z,0
2022-08-04T03:57:56.364Z,0
2022-08-04T03:58:33.804Z,0
2022-08-04T03:59:00.147Z,0
2022-08-04T03:59:35.215Z,0
2022-08-04T04:00:04.639Z,0
2022-08-04T04:00:38.099Z,0
2022-08-04T04:01:08.061Z,0
2022-08-04T04:01:41.626Z,0
2022-08-04T04:02:11.938Z,0
2022-08-04T04:02:44.875Z,0
2022-08-04T04:03:28.262Z,0
2022-08-04T04:03:48.731Z,0
2022-08-04T04:04:19.863Z,0
2022-08-04T04:04:52.944Z,0
2022-08-04T04:05:24.361Z,0
2022-08-04T04:05:59.997Z,0
2022-08-04T04:06:27.844Z,0
2022-08-04T04:07:00.765Z,0
2022-08-04T04:07:36.177Z,0
2022-08-04T04:08:09.323Z,0
2022-08-04T04:08:35.663Z,0
2022-08-04T04:09:13.565Z,0
2022-08-04T04:09:54.828Z,0
2022-08-04T04:10:12.783Z,0
2022-08-04T04:10:43.731Z,0
2022-08-04T04:11:16.562Z,0
2022-08-04T04:11:57.723Z,0
2022-08-04T04:12:20.524Z,0
2022-08-04T04:12:51.603Z,0
2022-08-04T04:13:24.372Z,0
2022-08-04T04:13:55.647Z,0
2022-08-04T04:14:28.592Z,0
2022-08-04T04:14:59.843Z,0
2022-08-04T04:15:32.851Z,0
2022-08-04T04:16:03.499Z,0
2022-08-04T04:16:37.029Z,0
2022-08-04T04:17:07.304Z,0
2022-08-04T04:17:40.250Z,0
2022-08-04T04:18:11.315Z,0
2022-08-04T04:18:45.503Z,0
2022-08-04T04:19:15.193Z,0
2022-08-04T04:19:48.192Z,0
2022-08-04T04:20:20.082Z,0
2022-08-04T04:20:53.244Z,0
2022-08-04T04:21:24.106Z,0
2022-08-04T04:21:57.185Z,0
2022-08-04T04:22:26.986Z,0
2022-08-04T04:23:01.152Z,0
2022-08-04T04:23:31.136Z,0
2022-08-04T04:24:08.210Z,0
2022-08-04T04:24:36.085Z,0
2022-08-04T04:25:07.256Z,0
2022-08-04T04:25:39.148Z,0
2022-08-04T04:26:11.093Z,0
2022-08-04T04:26:42.903Z,0
2022-08-04T04:27:14.926Z,0
2022-08-04T04:27:47.253Z,0
2022-08-04T04:28:45.594Z,0
2022-08-04T04:28:51.015Z,0
2022-08-04T04:29:22.922Z,0
2022-08-04T04:29:54.922Z,0
2022-08-04T04:30:27.061Z,0
2022-08-04T04:30:58.796Z,0
2022-08-04T04:31:32.298Z,0
2022-08-04T04:32:03.022Z,0
2022-08-04T04:32:34.985Z,0
2022-08-04T04:33:06.751Z,0
2022-08-04T04:33:38.761Z,0
2022-08-04T04:34:10.705Z,0
2022-08-04T04:34:45.827Z,0
2022-08-04T04:35:15.866Z,0
2022-08-04T04:35:47.042Z,0
2022-08-04T04:36:18.573Z,0
2022-08-04T04:36:50.754Z,0
2022-08-04T04:37:23.243Z,0
2022-08-04T04:37:54.719Z,0
2022-08-04T04:38:26.437Z,0
2022-08-04T04:38:58.638Z,0
2022-08-04T04:39:30.638Z,0
2022-08-04T04:40:03.935Z,0
2022-08-04T04:40:34.449Z,0
2022-08-04T04:41:06.550Z,0
2022-08-04T04:41:39.275Z,0
2022-08-04T04:42:10.590Z,0
2022-08-04T04:42:44.275Z,0
2022-08-04T04:43:14.343Z,0
2022-08-04T04:43:51.543Z,0
2022-08-04T04:44:19.179Z,0
2022-08-04T04:44:51.357Z,0
2022-08-04T04:45:22.516Z,0
2022-08-04T04:45:56.380Z,0
2022-08-04T04:46:26.301Z,0
2022-08-04T04:47:00.160Z,0
2022-08-04T04:48:09.253Z,0
2022-08-04T04:48:18.173Z,0
2022-08-04T04:48:50.034Z,0
2022-08-04T04:49:22.078Z,0
2022-08-04T04:49:53.997Z,0
2022-08-04T04:50:30.069Z,0
2022-08-04T04:50:58.893Z,0
2022-08-04T04:51:29.971Z,0
2022-08-04T04:52:02.089Z,0
2022-08-04T04:52:33.893Z,0
2022-08-04T04:53:05.844Z,0
2022-08-04T04:53:37.914Z,0
2022-08-04T04:54:09.938Z,0
2022-08-04T04:54:41.894Z,0
2022-08-04T04:55:14.000Z,0
2022-08-04T04:55:48.283Z,0
2022-08-04T04:56:17.684Z,0
2022-08-04T04:56:49.668Z,0
2022-08-04T04:57:53.242Z,0
2022-08-04T04:58:09.691Z,0
2022-08-04T04:58:42.889Z,0
2022-08-04T04:59:13.517Z,0
2022-08-04T04:59:46.661Z,0
2022-08-04T05:00:17.994Z,0
2022-08-04T05:00:53.408Z,0
2022-08-04T05:01:22.375Z,0
2022-08-04T05:01:54.609Z,0
2022-08-04T05:02:25.617Z,0
2022-08-04T05:03:00.797Z,0
2022-08-04T05:03:29.564Z,0
2022-08-04T05:04:02.525Z,0
2022-08-04T05:04:33.600Z,0
2022-08-04T05:05:06.381Z,0
2022-08-04T05:05:37.371Z,0
2022-08-04T05:06:10.291Z,0
2022-08-04T05:06:41.245Z,0
2022-08-04T05:07:14.176Z,0
2022-08-04T05:07:45.368Z,0
2022-08-04T05:08:44.333Z,0
2022-08-04T05:08:53.874Z,0
2022-08-04T05:09:22.179Z,0
2022-08-04T05:09:53.210Z,0
2022-08-04T05:10:26.365Z,0
2022-08-04T05:10:57.177Z,0
2022-08-04T05:11:30.025Z,0
2022-08-04T05:12:02.404Z,0
2022-08-04T05:14:26.362Z,0
2022-08-04T05:14:42.132Z,0
2022-08-04T05:15:13.473Z,0
2022-08-04T05:15:46.071Z,0
2022-08-04T05:16:18.955Z,0
2022-08-04T05:16:49.804Z,0
2022-08-04T05:17:22.928Z,0
2022-08-04T05:17:53.904Z,0
2022-08-04T05:18:25.907Z,0
2022-08-04T05:18:58.744Z,0
2022-08-04T05:19:28.843Z,0
2022-08-04T05:20:04.128Z,0
2022-08-04T05:20:32.712Z,0
2022-08-04T05:21:07.874Z,0
2022-08-04T05:21:36.800Z,0
2022-08-04T05:22:13.890Z,0
2022-08-04T05:22:40.600Z,0
2022-08-04T05:23:13.567Z,0
2022-08-04T05:23:44.639Z,0
2022-08-04T05:24:18.466Z,0
2022-08-04T05:24:48.502Z,0
2022-08-04T05:25:21.777Z,0
2022-08-04T05:25:58.785Z,0
2022-08-04T05:26:25.420Z,0
2022-08-04T05:26:56.582Z,0
2022-08-04T05:27:29.361Z,0
2022-08-04T05:28:00.401Z,0
2022-08-04T05:28:33.375Z,0
2022-08-04T05:29:04.427Z,0
2022-08-04T05:29:41.167Z,0
2022-08-04T05:30:08.936Z,0
2022-08-04T05:30:41.327Z,0
2022-08-04T05:31:12.386Z,0
2022-08-04T05:31:46.827Z,0
2022-08-04T05:32:16.234Z,0
2022-08-04T05:32:51.010Z,0
2022-08-04T05:33:20.370Z,0
2022-08-04T05:33:53.090Z,0
2022-08-04T05:34:24.211Z,0
2022-08-04T05:34:57.189Z,0
2022-08-04T05:35:53.103Z,0
2022-08-04T05:36:40.849Z,0
2022-08-04T05:37:05.968Z,1.44
2022-08-04T05:37:36.042Z,0
2022-08-04T05:38:09.288Z,.32
2022-08-04T05:38:40.037Z,0
2022-08-04T05:39:13.309Z,0
2022-08-04T05:39:43.946Z,0
2022-08-04T05:40:17.863Z,0
2022-08-04T05:40:48.001Z,0
2022-08-04T05:41:20.660Z,0
2022-08-04T05:41:55.649Z,0
2022-08-04T05:42:24.987Z,0
2022-08-04T05:42:56.032Z,0
2022-08-04T05:43:28.855Z,0
2022-08-04T05:43:59.809Z,0
2022-08-04T05:44:33.763Z,0
2022-08-04T05:45:04.192Z,0
2022-08-04T05:45:39.417Z,0
2022-08-04T05:46:07.835Z,0
2022-08-04T05:46:41.064Z,0
2022-08-04T05:47:11.647Z,0
2022-08-04T05:47:45.063Z,0
2022-08-04T05:48:16.635Z,0
2022-08-04T05:48:48.578Z,0
2022-08-04T05:49:19.753Z,0
2022-08-04T05:50:01.519Z,0
2022-08-04T05:50:23.737Z,0
2022-08-04T05:51:00.934Z,.32
2022-08-04T05:51:27.533Z,0
2022-08-04T05:52:03.468Z,0
2022-08-04T05:52:31.645Z,0
2022-08-04T05:53:04.396Z,0
2022-08-04T05:53:35.564Z,0
2022-08-04T05:54:08.367Z,0
2022-08-04T05:54:39.318Z,0
2022-08-04T05:55:12.482Z,0
2022-08-04T05:55:48.951Z,0
2022-08-04T05:56:17.406Z,0
2022-08-04T05:56:47.262Z,0
2022-08-04T05:57:21.417Z,0
2022-08-04T05:57:55.359Z,0
2022-08-04T05:58:24.064Z,0
2022-08-04T05:58:55.880Z,0
2022-08-04T05:59:29.228Z,0
2022-08-04T05:59:59.216Z,0
2022-08-04T06:00:41.259Z,0
2022-08-04T06:01:03.118Z,0
2022-08-04T06:01:55.842Z,0
2022-08-04T06:02:07.118Z,0
2022-08-04T06:02:40.243Z,0
2022-08-04T06:03:11.084Z,0
2022-08-04T06:03:44.827Z,0
2022-08-04T06:04:14.991Z,0
2022-08-04T06:04:48.079Z,0
2022-08-04T06:05:19.042Z,0
2022-08-04T06:05:52.150Z,0
2022-08-04T06:06:22.970Z,0
2022-08-04T06:06:55.740Z,0
2022-08-04T06:07:26.955Z,0
2022-08-04T06:08:12.542Z,0
2022-08-04T06:08:30.925Z,0
2022-08-04T06:09:03.800Z,0
2022-08-04T06:09:36.101Z,0
2022-08-04T06:10:09.976Z,.32
2022-08-04T06:10:38.664Z,.32
2022-08-04T06:11:11.747Z,.64
2022-08-04T06:12:00.241Z,1.12
2022-08-04T06:12:15.677Z,.32
2022-08-04T06:12:46.646Z,0
2022-08-04T06:13:48.868Z,0
2022-08-04T06:14:06.600Z,0
2022-08-04T06:14:38.571Z,.32
2022-08-04T06:15:11.163Z,.32
2022-08-04T06:15:46.046Z,0
2022-08-04T06:16:17.932Z,0
2022-08-04T06:16:51.450Z,0
2022-08-04T06:18:34.031Z,.32
2022-08-04T06:20:19.930Z,0
2022-08-04T06:20:50.187Z,.64
2022-08-04T06:21:18.408Z,.32
2022-08-04T06:21:51.080Z,0
2022-08-04T06:22:22.238Z,0
2022-08-04T06:22:55.652Z,0
2022-08-04T06:23:26.534Z,.32
2022-08-04T06:24:04.335Z,0
2022-08-04T06:24:30.089Z,0
2022-08-04T06:25:03.293Z,0
2022-08-04T06:25:35.290Z,0
2022-08-04T06:26:07.992Z,0
2022-08-04T06:26:38.134Z,0
2022-08-04T06:27:11.006Z,0
2022-08-04T06:27:41.949Z,0
2022-08-04T06:28:15.283Z,0
2022-08-04T06:28:46.088Z,0
2022-08-04T06:29:19.841Z,0
2022-08-04T06:29:51.476Z,0
2022-08-04T06:30:24.561Z,0
2022-08-04T06:30:54.091Z,0
2022-08-04T06:32:26.890Z,0
2022-08-04T06:32:45.787Z,.32
2022-08-04T06:33:18.144Z,0
2022-08-04T06:33:54.436Z,.32
2022-08-04T06:34:22.885Z,1.77
2022-08-04T06:34:53.776Z,1.44
2022-08-04T06:35:25.793Z,.64
2022-08-04T06:35:59.113Z,1.12
2022-08-04T06:36:29.621Z,1.12
2022-08-04T06:37:01.654Z,1.44
2022-08-04T06:37:41.869Z,0
2022-08-04T06:38:05.583Z,.32
2022-08-04T06:38:37.653Z,0
2022-08-04T06:39:09.742Z,0
2022-08-04T06:39:42.429Z,0
2022-08-04T06:40:31.839Z,.32
2022-08-04T06:40:45.509Z,.32
2022-08-04T06:41:17.386Z,0
2022-08-04T06:42:16.962Z,0
2022-08-04T06:42:37.399Z,0
2022-08-04T06:43:10.495Z,0
2022-08-04T06:43:43.061Z,0
2022-08-04T06:44:17.381Z,0
2022-08-04T06:44:45.326Z,0
2022-08-04T06:45:18.768Z,.32
2022-08-04T06:45:49.256Z,0
2022-08-04T06:46:23.345Z,1.44
2022-08-04T06:46:53.270Z,.32
2022-08-04T06:47:28.779Z,0
2022-08-04T06:47:57.248Z,0
2022-08-04T06:48:33.042Z,1.12
2022-08-04T06:49:02.248Z,.32
2022-08-04T06:49:44.224Z,1.12
2022-08-04T06:51:49.201Z,1.44
2022-08-04T06:52:13.015Z,2.09
2022-08-04T06:52:46.448Z,1.12
2022-08-04T06:53:16.971Z,1.12
2022-08-04T06:53:50.753Z,.32
2022-08-04T06:54:21.003Z,.32
2022-08-04T06:54:53.980Z,.64
2022-08-04T06:55:25.069Z,.32
2022-08-04T06:55:57.776Z,0
2022-08-04T06:56:28.678Z,0
2022-08-04T06:57:02.481Z,.32
2022-08-04T06:57:33.061Z,0
2022-08-04T06:58:05.758Z,0
2022-08-04T06:58:37.607Z,0
2022-08-04T06:59:10.639Z,0
2022-08-04T06:59:40.785Z,1.44
2022-08-04T07:00:13.907Z,1.44
2022-08-04T07:00:44.660Z,1.77
2022-08-04T07:01:22.893Z,1.77
2022-08-04T07:01:26.928Z,1.77
2022-08-04T07:01:48.625Z,2.09
2022-08-04T07:02:21.640Z,.32
2022-08-04T07:02:53.722Z,0
2022-08-04T07:03:25.588Z,0
2022-08-04T07:03:56.587Z,0
2022-08-04T07:04:29.441Z,0
2022-08-04T07:05:03.388Z,0
2022-08-04T07:05:33.470Z,.32
2022-08-04T07:06:05.717Z,.32
2022-08-04T07:06:37.440Z,0
2022-08-04T07:07:08.322Z,0
2022-08-04T07:07:57.120Z,1.12
2022-08-04T07:08:13.419Z,.32
2022-08-04T07:08:46.141Z,0
2022-08-04T07:09:16.298Z,0
2022-08-04T07:09:49.244Z,.32
2022-08-04T07:10:20.332Z,1.44
2022-08-04T07:10:53.186Z,0
2022-08-04T07:11:24.296Z,0
2022-08-04T07:11:56.992Z,0
2022-08-04T07:12:29.343Z,.32
2022-08-04T07:13:02.743Z,.32
2022-08-04T07:13:32.257Z,0
2022-08-04T07:14:05.336Z,1.77
2022-08-04T07:14:36.349Z,1.77
2022-08-04T07:15:09.805Z,2.09
2022-08-04T07:15:40.207Z,.32
2022-08-04T07:16:12.994Z,0
2022-08-04T07:16:43.994Z,1.44
2022-08-04T07:17:18.101Z,1.12
2022-08-04T07:17:52.055Z,2.09
2022-08-04T07:18:21.354Z,1.12
2022-08-04T07:18:52.054Z,1.44
2022-08-04T07:19:24.996Z,1.12
2022-08-04T07:19:55.935Z,1.44
2022-08-04T07:20:34.928Z,1.44
2022-08-04T07:20:59.780Z,3.54
2022-08-04T07:21:34.741Z,2.09
2022-08-04T07:22:18.146Z,1.77
2022-08-04T07:22:37.019Z,3.21
2022-08-04T07:23:07.897Z,1.44
2022-08-04T07:23:42.462Z,.64
2022-08-04T07:24:11.651Z,1.44
2022-08-04T07:24:44.752Z,1.77
2022-08-04T07:25:15.677Z,0
2022-08-04T07:25:59.423Z,1.77
2022-08-04T07:26:19.815Z,2.57
2022-08-04T07:26:52.580Z,2.09
2022-08-04T07:27:47.558Z,3.54
2022-08-04T07:27:56.546Z,2.57
2022-08-04T07:28:27.526Z,1.44
2022-08-04T07:29:00.603Z,2.09
2022-08-04T07:29:31.454Z,1.44
2022-08-04T07:30:04.996Z,1.44
2022-08-04T07:30:35.660Z,1.77
2022-08-04T07:31:11.314Z,0
2022-08-04T07:31:39.550Z,0
2022-08-04T07:32:11.381Z,0
2022-08-04T07:32:43.259Z,.32
2022-08-04T07:33:16.479Z,1.44
2022-08-04T07:33:48.494Z,1.77
2022-08-04T07:34:21.321Z,1.44
2022-08-04T07:34:52.433Z,0
2022-08-04T07:36:04.641Z,1.12
2022-08-04T07:36:30.148Z,1.44
2022-08-04T07:37:01.005Z,0
2022-08-04T07:37:39.130Z,0
2022-08-04T07:38:03.982Z,1.77
2022-08-04T07:38:37.812Z,.64
2022-08-04T07:39:07.944Z,0
2022-08-04T07:39:48.014Z,1.12
2022-08-04T07:40:12.932Z,1.44
2022-08-04T07:40:43.029Z,.32
2022-08-04T07:41:36.623Z,1.44
2022-08-04T07:41:49.028Z,1.12
2022-08-04T07:42:20.047Z,2.09
2022-08-04T07:42:51.509Z,1.44
2022-08-04T07:43:25.929Z,.32
2022-08-04T07:43:54.894Z,2.57
2022-08-04T07:44:28.325Z,.32
2022-08-04T07:44:58.773Z,.32
2022-08-04T07:45:33.023Z,.64
2022-08-04T07:46:02.792Z,0
2022-08-04T07:46:35.847Z,.32
2022-08-04T07:47:09.135Z,1.44
2022-08-04T07:47:40.484Z,1.77
2022-08-04T07:48:10.722Z,1.12
2022-08-04T07:48:43.554Z,0
2022-08-04T07:49:54.827Z,.64
2022-08-04T07:50:02.850Z,.32
2022-08-04T07:50:34.663Z,.32
2022-08-04T07:51:06.677Z,1.12
2022-08-04T07:51:38.492Z,1.77
2022-08-04T07:52:10.507Z,1.44
2022-08-04T07:52:42.536Z,.32
2022-08-04T07:53:55.408Z,.32
2022-08-04T07:54:03.760Z,2.09
2022-08-04T07:54:34.367Z,.64
2022-08-04T07:55:07.532Z,1.12
2022-08-04T07:55:38.480Z,1.44
2022-08-04T07:56:11.286Z,1.12
2022-08-04T07:56:42.473Z,1.12
2022-08-04T07:57:21.115Z,0
2022-08-04T07:57:48.557Z,1.44